createdAt,value
2023-06-02T00:00:51.369Z,17.20
2023-06-02T00:03:22.037Z,17.10
2023-06-02T00:05:54.768Z,17.10
2023-06-02T00:08:24.901Z,17.10
2023-06-02T00:10:54.993Z,17.00
2023-06-02T00:13:26.083Z,17.00
2023-06-02T00:15:56.432Z,16.90
2023-06-02T00:18:26.532Z,16.90
2023-06-02T00:21:01.157Z,16.90
2023-06-02T00:23:32.189Z,16.80
2023-06-02T00:26:02.815Z,16.80
2023-06-02T00:28:33.399Z,16.70
2023-06-02T00:31:03.554Z,16.60
2023-06-02T00:33:33.676Z,16.60
2023-06-02T00:36:06.977Z,16.50
2023-06-02T00:38:37.216Z,16.50
2023-06-02T00:41:07.457Z,16.50
2023-06-02T00:43:37.448Z,16.40
2023-06-02T00:46:07.405Z,16.30
2023-06-02T00:48:37.439Z,16.40
2023-06-02T00:51:10.150Z,16.30
2023-06-02T00:53:41.829Z,16.30
2023-06-02T00:56:12.232Z,16.30
2023-06-02T00:58:42.663Z,16.20
2023-06-02T01:01:13.731Z,16.20
2023-06-02T01:03:45.351Z,16.20
2023-06-02T01:06:24.508Z,16.10
2023-06-02T01:08:55.220Z,16.10
2023-06-02T01:11:25.129Z,16.10
2023-06-02T01:13:55.841Z,16.10
2023-06-02T01:16:28.339Z,16.00
2023-06-02T01:19:00.688Z,15.90
2023-06-02T01:21:38.735Z,15.90
2023-06-02T01:24:15.981Z,15.80
2023-06-02T01:26:45.954Z,15.70
2023-06-02T01:29:15.870Z,15.70
2023-06-02T01:31:50.856Z,15.60
2023-06-02T01:34:32.065Z,15.50
2023-06-02T01:37:04.379Z,15.50
2023-06-02T01:39:38.085Z,15.50
2023-06-02T01:42:09.298Z,15.40
2023-06-02T01:44:40.922Z,15.30
2023-06-02T01:47:11.491Z,15.20
2023-06-02T01:49:41.498Z,15.20
2023-06-02T01:52:11.557Z,15.10
2023-06-02T01:54:45.201Z,15.10
2023-06-02T01:57:15.085Z,15.00
2023-06-02T01:59:45.055Z,14.90
2023-06-02T02:02:15.009Z,14.80
2023-06-02T02:04:45.282Z,14.80
2023-06-02T02:07:20.837Z,14.70
2023-06-02T02:09:53.433Z,14.70
2023-06-02T02:12:23.371Z,14.60
2023-06-02T02:14:57.746Z,14.60
2023-06-02T02:17:29.620Z,14.60
2023-06-02T02:19:59.621Z,14.50
2023-06-02T02:22:29.573Z,14.50
2023-06-02T02:25:02.538Z,14.40
2023-06-02T02:27:33.286Z,14.40
2023-06-02T02:30:03.934Z,14.40
2023-06-02T02:32:34.609Z,14.40
2023-06-02T02:35:05.234Z,14.40
2023-06-02T02:37:45.798Z,14.40
2023-06-02T02:40:20.156Z,14.30
2023-06-02T02:42:50.054Z,14.20
2023-06-02T02:45:20.101Z,14.20
2023-06-02T02:47:50.039Z,14.10
2023-06-02T02:50:20.035Z,14.20
2023-06-02T02:52:49.944Z,14.10
2023-06-02T02:55:23.891Z,14.00
2023-06-02T02:57:55.217Z,14.00
2023-06-02T03:00:25.253Z,13.90
2023-06-02T03:02:55.924Z,13.90
2023-06-02T03:05:26.345Z,13.90
2023-06-02T03:07:56.440Z,13.80
2023-06-02T03:10:28.904Z,13.80
2023-06-02T03:12:58.863Z,13.80
2023-06-02T03:15:28.760Z,13.70
2023-06-02T03:18:00.492Z,13.80
2023-06-02T03:20:30.785Z,13.80
2023-06-02T03:23:00.706Z,13.70
2023-06-02T03:25:33.177Z,13.60
2023-06-02T03:28:03.600Z,13.60
2023-06-02T03:30:33.566Z,13.50
2023-06-02T03:33:03.472Z,13.50
2023-06-02T03:35:33.476Z,13.50
2023-06-02T03:38:06.387Z,13.50
2023-06-02T03:40:39.016Z,13.40
2023-06-02T03:43:08.881Z,13.60
2023-06-02T03:45:38.796Z,13.80
2023-06-02T03:48:09.373Z,13.80
2023-06-02T03:50:40.049Z,14.00
2023-06-02T03:53:09.934Z,14.60
2023-06-02T03:55:42.416Z,14.70
2023-06-02T03:58:13.901Z,14.80
2023-06-02T04:00:45.315Z,15.20
2023-06-02T04:03:15.197Z,15.40
2023-06-02T04:05:45.588Z,15.50
2023-06-02T04:08:15.644Z,16.10
2023-06-02T04:10:48.198Z,16.00
2023-06-02T04:13:18.216Z,16.10
2023-06-02T04:15:48.093Z,15.80
2023-06-02T04:18:18.000Z,16.20
2023-06-02T04:20:48.406Z,16.00
2023-06-02T04:23:18.494Z,16.00
2023-06-02T04:25:51.113Z,16.60
2023-06-02T04:28:20.981Z,16.90
2023-06-02T04:30:52.453Z,16.70
2023-06-02T04:33:22.974Z,16.60
2023-06-02T04:35:52.867Z,16.70
2023-06-02T04:38:22.871Z,17.30
2023-06-02T04:40:57.590Z,17.30
2023-06-02T04:43:27.517Z,17.10
2023-06-02T04:45:58.065Z,17.50
2023-06-02T04:48:28.039Z,17.70
2023-06-02T04:50:57.966Z,18.50
2023-06-02T04:53:28.004Z,17.80
2023-06-02T04:56:00.517Z,17.70
2023-06-02T04:58:30.520Z,17.50
2023-06-02T05:01:00.462Z,17.80
2023-06-02T05:03:30.382Z,18.50
2023-06-02T05:06:00.412Z,18.70
2023-06-02T05:08:30.420Z,19.20
2023-06-02T05:11:03.252Z,19.00
2023-06-02T05:13:33.227Z,19.20
2023-06-02T05:16:04.323Z,18.30
2023-06-02T05:18:34.899Z,18.30
2023-06-02T05:21:04.888Z,17.00
2023-06-02T05:23:34.806Z,18.30
2023-06-02T05:26:07.256Z,18.40
2023-06-02T05:28:37.332Z,18.20
2023-06-02T05:31:07.311Z,17.50
2023-06-02T05:33:37.215Z,17.70
2023-06-02T05:36:07.458Z,18.10
2023-06-02T05:38:37.401Z,17.80
2023-06-02T05:41:09.957Z,17.50
2023-06-02T05:43:39.845Z,17.50
2023-06-02T05:46:09.754Z,18.10
2023-06-02T05:48:39.862Z,18.20
2023-06-02T05:51:09.811Z,17.90
2023-06-02T05:53:39.691Z,17.90
2023-06-02T05:56:12.389Z,17.70
2023-06-02T05:58:42.853Z,17.20
2023-06-02T06:01:12.926Z,17.80
2023-06-02T06:03:42.915Z,17.10
2023-06-02T06:06:12.941Z,17.60
2023-06-02T06:08:42.842Z,16.10
2023-06-02T06:11:15.323Z,15.10
2023-06-02T06:13:45.170Z,14.80
2023-06-02T06:16:15.167Z,15.10
2023-06-02T06:18:45.381Z,15.50
2023-06-02T06:21:15.334Z,15.70
2023-06-02T06:23:45.300Z,15.60
2023-06-02T06:26:17.739Z,15.80
2023-06-02T06:28:47.732Z,16.80
2023-06-02T06:31:17.686Z,16.90
2023-06-02T06:33:47.789Z,17.70
2023-06-02T06:36:17.979Z,16.90
2023-06-02T06:38:47.962Z,16.80
2023-06-02T06:41:22.892Z,16.20
2023-06-02T06:43:52.936Z,16.30
2023-06-02T06:46:22.930Z,16.70
2023-06-02T06:48:52.975Z,16.20
2023-06-02T06:51:23.063Z,16.00
2023-06-02T06:53:52.964Z,15.90
2023-06-02T06:56:26.475Z,16.00
2023-06-02T06:58:56.385Z,16.30
2023-06-02T07:01:26.290Z,16.40
2023-06-02T07:03:56.384Z,15.70
2023-06-02T07:06:26.830Z,16.00
2023-06-02T07:08:56.749Z,16.00
2023-06-02T07:11:29.703Z,15.80
2023-06-02T07:14:14.805Z,15.80
2023-06-02T07:16:49.457Z,15.70
2023-06-02T07:19:20.647Z,16.30
2023-06-02T07:21:50.813Z,15.90
2023-06-02T07:24:21.421Z,15.90
2023-06-02T07:26:53.990Z,16.30
2023-06-02T07:29:23.855Z,16.60
2023-06-02T07:31:54.074Z,16.50
2023-06-02T07:34:24.189Z,16.70
2023-06-02T07:36:55.911Z,16.70
2023-06-02T07:39:26.549Z,16.50
2023-06-02T07:41:59.109Z,16.00
2023-06-02T07:44:28.999Z,16.80
2023-06-02T07:46:59.022Z,16.50
2023-06-02T07:49:29.097Z,16.40
2023-06-02T07:51:59.082Z,16.40
2023-06-02T07:54:28.996Z,16.70
2023-06-02T07:57:01.532Z,16.70
2023-06-02T07:59:31.560Z,16.80
2023-06-02T08:02:01.587Z,16.60
2023-06-02T08:04:31.831Z,17.10
2023-06-02T08:07:01.944Z,17.20
2023-06-02T08:09:32.083Z,16.90
2023-06-02T08:12:04.565Z,17.00
2023-06-02T08:14:34.838Z,16.80
2023-06-02T08:17:04.750Z,17.30
2023-06-02T08:19:34.832Z,17.00
2023-06-02T08:22:05.118Z,17.30
2023-06-02T08:24:37.993Z,17.30
2023-06-02T08:27:11.172Z,17.30
2023-06-02T08:29:41.045Z,17.10
2023-06-02T08:32:11.209Z,16.90
2023-06-02T08:34:42.765Z,17.00
2023-06-02T08:37:16.661Z,16.90
2023-06-02T08:39:46.845Z,17.20
2023-06-02T08:42:20.078Z,17.20
2023-06-02T08:44:50.032Z,17.30
2023-06-02T08:47:23.547Z,17.30
2023-06-02T08:49:53.916Z,17.50
2023-06-02T08:52:27.041Z,17.50
2023-06-02T08:54:59.080Z,17.50
2023-06-02T08:57:31.573Z,17.70
2023-06-02T09:00:01.595Z,17.90
2023-06-02T09:02:31.631Z,18.50
2023-06-02T09:05:04.339Z,18.40
2023-06-02T09:07:34.368Z,18.40
2023-06-02T09:10:05.130Z,18.30
2023-06-02T09:12:50.966Z,18.10
2023-06-02T09:15:21.117Z,18.10
2023-06-02T09:17:51.139Z,17.90
2023-06-02T09:20:21.160Z,18.30
2023-06-02T09:22:57.978Z,18.30
2023-06-02T09:25:29.685Z,18.80
2023-06-02T09:28:03.632Z,18.50
2023-06-02T09:30:33.590Z,18.50
2023-06-02T09:33:05.319Z,18.80
2023-06-02T09:35:41.665Z,18.80
2023-06-02T09:38:13.899Z,18.80
2023-06-02T09:40:45.509Z,18.20
2023-06-02T09:43:20.738Z,18.40
2023-06-02T09:46:05.695Z,18.60
2023-06-02T09:48:36.796Z,18.50
2023-06-02T09:51:25.039Z,19.20
2023-06-02T09:53:57.205Z,18.80
2023-06-02T09:56:30.695Z,19.40
2023-06-02T09:59:04.582Z,19.60
2023-06-02T10:01:35.270Z,19.50
2023-06-02T10:04:06.222Z,19.90
2023-06-02T10:06:52.472Z,19.60
2023-06-02T10:09:36.514Z,19.90
2023-06-02T10:12:30.486Z,19.20
2023-06-02T10:15:27.532Z,19.70
2023-06-02T10:18:12.449Z,19.30
2023-06-02T10:20:47.084Z,19.90
2023-06-02T10:23:32.524Z,20.00
2023-06-02T10:26:30.445Z,20.00
2023-06-02T10:29:04.494Z,20.30
2023-06-02T10:31:37.320Z,19.60
2023-06-02T10:34:07.246Z,19.90
2023-06-02T10:37:07.181Z,20.00
2023-06-02T10:39:55.243Z,20.10
2023-06-02T10:42:27.223Z,20.20
2023-06-02T10:45:42.551Z,20.50
2023-06-02T10:48:45.920Z,20.70
2023-06-02T10:51:16.103Z,20.30
2023-06-02T10:54:16.484Z,20.80
2023-06-02T10:56:48.482Z,20.70
2023-06-02T10:59:36.084Z,20.70
2023-06-02T11:02:07.032Z,21.10
2023-06-02T11:04:44.326Z,21.00
2023-06-02T11:07:20.293Z,20.90
2023-06-02T11:09:52.453Z,20.70
2023-06-02T11:12:23.392Z,20.10
2023-06-02T11:15:21.072Z,20.50
2023-06-02T11:17:51.560Z,20.60
2023-06-02T11:20:34.952Z,21.10
2023-06-02T11:23:08.394Z,21.00
2023-06-02T11:25:38.310Z,20.70
2023-06-02T11:28:08.442Z,21.20
2023-06-02T11:30:39.815Z,21.60
2023-06-02T11:33:09.877Z,21.50
2023-06-02T11:35:47.666Z,21.40
2023-06-02T11:38:18.029Z,21.60
2023-06-02T11:40:48.031Z,21.60
2023-06-02T11:43:24.180Z,21.10
2023-06-02T11:45:54.270Z,21.40
2023-06-02T11:48:27.265Z,21.60
2023-06-02T11:50:59.849Z,21.40
2023-06-02T11:53:29.794Z,21.70
2023-06-02T11:55:59.873Z,21.20
2023-06-02T11:58:31.547Z,21.30
2023-06-02T12:01:12.267Z,21.00
2023-06-02T12:03:42.387Z,21.60
2023-06-02T12:06:16.530Z,21.70
2023-06-02T12:08:47.586Z,21.40
2023-06-02T12:11:18.763Z,21.80
2023-06-02T12:14:00.329Z,21.40
2023-06-02T12:16:30.838Z,21.30
2023-06-02T12:19:16.587Z,21.60
2023-06-02T12:21:50.720Z,21.50
2023-06-02T12:24:32.931Z,21.60
2023-06-02T12:27:03.177Z,21.90
2023-06-02T12:29:33.168Z,22.10
2023-06-02T12:32:04.331Z,22.30
2023-06-02T12:34:34.552Z,22.60
2023-06-02T12:37:08.307Z,22.10
2023-06-02T12:39:38.220Z,22.30
2023-06-02T12:42:10.678Z,22.30
2023-06-02T12:44:40.609Z,22.70
2023-06-02T12:47:10.694Z,22.60
2023-06-02T12:49:41.399Z,22.30
2023-06-02T12:52:13.838Z,22.70
2023-06-02T12:54:43.734Z,23.00
2023-06-02T12:57:13.696Z,22.50
2023-06-02T12:59:43.592Z,22.60
2023-06-02T13:02:13.560Z,21.80
2023-06-02T13:04:43.513Z,22.50
2023-06-02T13:07:16.162Z,23.00
2023-06-02T13:09:46.176Z,22.80
2023-06-02T13:12:16.102Z,22.60
2023-06-02T13:14:46.118Z,22.50
2023-06-02T13:17:16.675Z,22.90
2023-06-02T13:19:47.887Z,22.70
2023-06-02T13:22:20.566Z,22.50
2023-06-02T13:24:50.612Z,22.80
2023-06-02T13:27:27.085Z,23.00
2023-06-02T13:30:01.017Z,22.50
2023-06-02T13:32:30.956Z,22.60
2023-06-02T13:35:01.626Z,22.60
2023-06-02T13:37:35.143Z,22.80
2023-06-02T13:40:06.519Z,22.30
2023-06-02T13:42:37.227Z,22.70
2023-06-02T13:45:08.446Z,22.90
2023-06-02T13:47:38.638Z,23.00
2023-06-02T13:50:09.561Z,23.00
2023-06-02T13:52:42.093Z,22.80
2023-06-02T13:55:13.248Z,23.10
2023-06-02T13:57:43.433Z,23.10
2023-06-02T14:00:14.746Z,23.40
2023-06-02T14:02:44.725Z,23.10
2023-06-02T14:05:14.737Z,23.00
2023-06-02T14:07:47.276Z,23.20
2023-06-02T14:10:18.166Z,22.90
2023-06-02T14:12:48.156Z,22.90
2023-06-02T14:15:18.340Z,22.90
2023-06-02T14:17:48.333Z,23.70
2023-06-02T14:20:20.137Z,23.50
2023-06-02T14:22:52.753Z,23.60
2023-06-02T14:25:22.663Z,23.10
2023-06-02T14:27:52.581Z,23.50
2023-06-02T14:30:22.499Z,23.50
2023-06-02T14:32:52.446Z,23.40
2023-06-02T14:35:22.701Z,23.30
2023-06-02T14:37:55.253Z,23.10
2023-06-02T14:40:25.313Z,22.80
2023-06-02T14:42:55.190Z,23.00
2023-06-02T14:45:25.117Z,23.10
2023-06-02T14:47:56.449Z,23.40
2023-06-02T14:50:27.228Z,23.80
2023-06-02T14:52:59.965Z,23.90
2023-06-02T14:55:30.134Z,23.60
2023-06-02T14:58:00.199Z,23.60
2023-06-02T15:00:31.751Z,23.40
2023-06-02T15:03:01.948Z,23.80
2023-06-02T15:05:31.978Z,23.90
2023-06-02T15:08:05.024Z,23.40
2023-06-02T15:10:34.968Z,23.60
2023-06-02T15:13:04.885Z,22.80
2023-06-02T15:15:34.798Z,23.40
2023-06-02T15:18:04.810Z,23.20
2023-06-02T15:20:34.801Z,23.10
2023-06-02T15:23:07.333Z,23.10
2023-06-02T15:25:38.336Z,23.30
2023-06-02T15:28:08.270Z,23.50
2023-06-02T15:30:38.443Z,23.40
2023-06-02T15:33:08.508Z,23.50
2023-06-02T15:35:38.506Z,23.60
2023-06-02T15:38:11.025Z,23.40
2023-06-02T15:40:41.053Z,23.80
2023-06-02T15:43:10.929Z,23.60
2023-06-02T15:45:40.816Z,23.50
2023-06-02T15:48:10.892Z,23.70
2023-06-02T15:50:41.538Z,23.70
2023-06-02T15:53:13.981Z,23.40
2023-06-02T15:55:44.846Z,23.30
2023-06-02T15:58:15.137Z,23.50
2023-06-02T16:00:45.011Z,23.60
2023-06-02T16:03:14.870Z,23.30
2023-06-02T16:05:44.909Z,23.60
2023-06-02T16:08:17.481Z,23.50
2023-06-02T16:10:47.369Z,23.30
2023-06-02T16:13:17.267Z,23.30
2023-06-02T16:15:47.741Z,23.30
2023-06-02T16:18:17.797Z,23.10
2023-06-02T16:20:47.665Z,23.20
2023-06-02T16:23:20.168Z,23.50
2023-06-02T16:25:50.228Z,23.40
2023-06-02T16:28:20.225Z,23.40
2023-06-02T16:30:50.166Z,23.30
2023-06-02T16:33:20.117Z,23.30
2023-06-02T16:35:50.100Z,23.70
2023-06-02T16:38:22.594Z,23.70
2023-06-02T16:40:52.689Z,23.90
2023-06-02T16:43:22.863Z,24.00
2023-06-02T16:45:53.222Z,23.90
2023-06-02T16:48:23.359Z,23.60
2023-06-02T16:50:53.265Z,23.70
2023-06-02T16:53:28.776Z,23.70
2023-06-02T16:55:59.447Z,23.70
2023-06-02T16:58:30.132Z,23.80
2023-06-02T17:01:00.383Z,23.70
2023-06-02T17:03:30.583Z,23.20
2023-06-02T17:06:00.522Z,22.70
2023-06-02T17:08:33.140Z,23.00
2023-06-02T17:11:03.434Z,22.80
2023-06-02T17:13:34.211Z,22.80
2023-06-02T17:16:04.539Z,22.90
2023-06-02T17:18:34.460Z,22.80
2023-06-02T17:21:04.707Z,22.90
2023-06-02T17:23:37.315Z,23.00
2023-06-02T17:26:07.342Z,23.30
2023-06-02T17:28:37.522Z,23.40
2023-06-02T17:31:08.561Z,23.70
2023-06-02T17:33:38.716Z,23.90
2023-06-02T17:36:09.432Z,24.20
2023-06-02T17:38:42.062Z,24.20
2023-06-02T17:41:14.116Z,24.00
2023-06-02T17:43:44.117Z,23.80
2023-06-02T17:46:14.013Z,24.00
2023-06-02T17:48:45.602Z,24.10
2023-06-02T17:51:16.357Z,24.50
2023-06-02T17:53:48.820Z,24.30
2023-06-02T17:56:18.795Z,23.00
2023-06-02T17:58:48.711Z,23.20
2023-06-02T18:01:18.720Z,23.40
2023-06-02T18:03:48.791Z,23.60
2023-06-02T18:06:18.859Z,23.40
2023-06-02T18:08:51.412Z,23.20
2023-06-02T18:11:21.803Z,23.30
2023-06-02T18:13:51.726Z,23.50
2023-06-02T18:16:21.665Z,22.10
2023-06-02T18:18:51.795Z,21.60
2023-06-02T18:21:21.796Z,21.20
2023-06-02T18:23:57.452Z,21.00
2023-06-02T18:26:28.720Z,20.80
2023-06-02T18:28:58.662Z,20.60
2023-06-02T18:31:29.398Z,20.60
2023-06-02T18:33:59.508Z,20.40
2023-06-02T18:36:29.577Z,20.30
2023-06-02T18:39:02.094Z,20.40
2023-06-02T18:41:33.855Z,20.30
2023-06-02T18:44:03.999Z,20.20
2023-06-02T18:46:35.569Z,20.20
2023-06-02T18:49:05.582Z,20.10
2023-06-02T18:51:36.186Z,19.90
2023-06-02T18:54:08.711Z,19.80
2023-06-02T18:56:39.003Z,19.80
2023-06-02T18:59:08.912Z,19.80
2023-06-02T19:01:38.902Z,19.70
2023-06-02T19:04:13.244Z,19.60
2023-06-02T19:06:43.418Z,19.50
2023-06-02T19:09:15.914Z,19.50
2023-06-02T19:11:46.519Z,19.40
2023-06-02T19:14:16.450Z,19.40
2023-06-02T19:16:46.550Z,19.30
2023-06-02T19:19:18.299Z,19.20
2023-06-02T19:21:51.035Z,19.20
2023-06-02T19:24:24.861Z,19.10
2023-06-02T19:26:55.028Z,19.00
2023-06-02T19:29:25.017Z,19.00
2023-06-02T19:31:55.105Z,19.00
2023-06-02T19:34:25.107Z,18.90
2023-06-02T19:36:55.169Z,18.90
2023-06-02T19:39:27.672Z,18.80
2023-06-02T19:41:57.626Z,18.70
2023-06-02T19:44:27.656Z,18.70
2023-06-02T19:46:59.458Z,18.60
2023-06-02T19:49:29.550Z,18.60
2023-06-02T19:52:00.081Z,18.60
2023-06-02T19:54:33.675Z,18.50
2023-06-02T19:57:03.970Z,18.40
2023-06-02T19:59:34.111Z,18.40
2023-06-02T20:02:04.021Z,18.40
2023-06-02T20:04:36.184Z,18.30
2023-06-02T20:07:08.324Z,18.20
2023-06-02T20:09:40.844Z,18.20
2023-06-02T20:12:11.305Z,18.10
2023-06-02T20:14:41.299Z,18.10
2023-06-02T20:17:11.284Z,18.00
2023-06-02T20:19:42.829Z,18.00
2023-06-02T20:22:13.340Z,17.90
2023-06-02T20:24:45.882Z,17.90
2023-06-02T20:27:17.425Z,17.80
2023-06-02T20:29:47.720Z,17.80
2023-06-02T20:32:17.851Z,17.70
2023-06-02T20:34:47.781Z,17.70
2023-06-02T20:37:17.753Z,17.60
2023-06-02T20:39:50.250Z,17.60
2023-06-02T20:42:20.206Z,17.60
2023-06-02T20:44:50.240Z,17.50
2023-06-02T20:47:20.158Z,17.50
2023-06-02T20:49:50.256Z,17.40
2023-06-02T20:52:20.195Z,17.40
2023-06-02T20:54:53.344Z,17.40
2023-06-02T20:57:23.199Z,17.30
2023-06-02T20:59:53.172Z,17.30
2023-06-02T21:02:24.625Z,17.20
2023-06-02T21:04:54.597Z,17.20
2023-06-02T21:07:26.119Z,17.10
2023-06-02T21:09:58.614Z,17.10
2023-06-02T21:12:28.574Z,17.00
2023-06-02T21:14:58.536Z,17.00
2023-06-02T21:17:28.537Z,17.00
2023-06-02T21:19:58.417Z,17.00
2023-06-02T21:22:29.242Z,16.90
2023-06-02T21:25:02.896Z,16.90
2023-06-02T21:27:32.841Z,16.80
2023-06-02T21:30:02.808Z,16.80
2023-06-02T21:32:32.913Z,16.70
2023-06-02T21:35:03.100Z,16.70
2023-06-02T21:37:33.026Z,16.60
2023-06-02T21:40:05.568Z,16.60
2023-06-02T21:42:35.716Z,16.60
2023-06-02T21:45:05.737Z,16.50
2023-06-02T21:47:35.640Z,16.50
2023-06-02T21:50:05.798Z,16.40
2023-06-02T21:52:35.687Z,16.30
2023-06-02T21:55:08.989Z,16.30
2023-06-02T21:57:38.907Z,16.30
2023-06-02T22:00:13.858Z,16.20
2023-06-02T22:02:44.746Z,16.20
2023-06-02T22:05:16.882Z,16.20
2023-06-02T22:07:46.987Z,16.10
2023-06-02T22:10:19.684Z,16.10
2023-06-02T22:12:50.899Z,16.00
2023-06-02T22:15:22.094Z,16.00
2023-06-02T22:17:52.117Z,16.00
2023-06-02T22:20:22.271Z,15.90
2023-06-02T22:22:52.195Z,15.80
2023-06-02T22:25:24.711Z,15.70
2023-06-02T22:27:54.735Z,15.70
2023-06-02T22:30:24.671Z,15.70
2023-06-02T22:32:54.627Z,15.60
2023-06-02T22:35:24.561Z,15.60
2023-06-02T22:37:54.508Z,15.60
2023-06-02T22:40:27.051Z,15.60
2023-06-02T22:42:56.944Z,15.50
2023-06-02T22:45:26.909Z,15.50
2023-06-02T22:47:56.799Z,15.50
2023-06-02T22:50:27.325Z,15.50
2023-06-02T22:52:57.259Z,15.40
2023-06-02T22:55:29.745Z,15.30
2023-06-02T22:57:59.627Z,15.30
2023-06-02T23:00:29.530Z,15.20
2023-06-02T23:02:59.526Z,15.30
2023-06-02T23:05:29.467Z,15.20
2023-06-02T23:07:59.386Z,15.20
2023-06-02T23:10:31.793Z,15.10
2023-06-02T23:13:01.770Z,15.10
2023-06-02T23:15:31.705Z,15.00
2023-06-02T23:18:01.684Z,15.00
2023-06-02T23:20:31.569Z,15.00
2023-06-02T23:23:01.496Z,15.00
2023-06-02T23:25:34.026Z,14.90
2023-06-02T23:28:03.960Z,14.90
2023-06-02T23:30:33.841Z,14.90
2023-06-02T23:33:04.542Z,14.80
2023-06-02T23:35:34.725Z,14.80
2023-06-02T23:38:04.834Z,14.70
2023-06-02T23:40:37.713Z,14.70
2023-06-02T23:43:09.024Z,14.70
2023-06-02T23:45:38.922Z,14.70
2023-06-02T23:48:09.555Z,14.70
2023-06-02T23:50:39.542Z,14.70
2023-06-02T23:53:09.484Z,14.60
2023-06-02T23:55:42.054Z,14.60
2023-06-02T23:58:11.993Z,14.60
